createdAt,value
2022-11-20T00:01:30.996Z,99852.92
2022-11-20T00:04:03.240Z,99846.08
2022-11-20T00:06:35.254Z,99843.52
2022-11-20T00:09:07.471Z,99844.43
2022-11-20T00:11:39.436Z,99842.74
2022-11-20T00:14:13.729Z,99845.29
2022-11-20T00:16:45.647Z,99843.02
2022-11-20T00:19:18.658Z,99844.08
2022-11-20T00:21:52.485Z,99843.71
2022-11-20T00:24:24.757Z,99843.50
2022-11-20T00:26:56.745Z,99841.27
2022-11-20T00:29:28.659Z,99836.67
2022-11-20T00:32:00.596Z,99837.14
2022-11-20T00:34:32.911Z,99840.36
2022-11-20T00:37:04.781Z,99836.91
2022-11-20T00:39:36.716Z,99838.00
2022-11-20T00:42:09.243Z,99838.61
2022-11-20T00:44:41.462Z,99836.63
2022-11-20T00:47:13.477Z,99837.30
2022-11-20T00:49:45.365Z,99833.73
2022-11-20T00:52:17.302Z,99830.69
2022-11-20T00:54:49.239Z,99833.40
2022-11-20T00:57:21.484Z,99836.36
2022-11-20T00:59:53.449Z,99840.34
2022-11-20T01:02:25.770Z,99833.83
2022-11-20T01:04:57.757Z,99832.67
2022-11-20T01:07:29.767Z,99832.71
2022-11-20T01:10:01.894Z,99835.32
2022-11-20T01:12:33.878Z,99836.40
2022-11-20T01:15:06.994Z,99833.08
2022-11-20T01:17:38.857Z,99831.11
2022-11-20T01:20:13.609Z,99833.48
2022-11-20T01:22:45.858Z,99834.31
2022-11-20T01:25:17.844Z,99831.67
2022-11-20T01:27:49.781Z,99827.14
2022-11-20T01:30:21.975Z,99827.67
2022-11-20T01:32:54.093Z,99831.23
2022-11-20T01:35:26.363Z,99834.36
2022-11-20T01:37:58.249Z,99833.02
2022-11-20T01:40:30.186Z,99832.89
2022-11-20T01:43:23.383Z,99832.64
2022-11-20T01:46:07.634Z,99827.07
2022-11-20T01:48:45.904Z,99825.29
2022-11-20T01:51:26.427Z,99826.39
2022-11-20T01:54:02.227Z,99824.17
2022-11-20T01:56:39.312Z,99822.66
2022-11-20T01:59:14.403Z,99826.96
2022-11-20T02:01:45.059Z,99821.02
2022-11-20T02:04:17.583Z,99821.61
2022-11-20T02:06:53.336Z,99821.10
2022-11-20T02:09:25.250Z,99820.98
2022-11-20T02:11:58.209Z,99816.58
2022-11-20T02:14:30.918Z,99820.73
2022-11-20T02:17:02.854Z,99818.27
2022-11-20T02:19:35.714Z,99815.05
2022-11-20T02:22:11.723Z,99806.88
2022-11-20T02:24:46.887Z,99804.19
2022-11-20T02:27:20.895Z,99804.59
2022-11-20T02:29:58.593Z,99804.86
2022-11-20T02:32:32.452Z,99808.38
2022-11-20T02:35:12.636Z,99808.71
2022-11-20T02:37:44.929Z,99809.30
2022-11-20T02:40:17.099Z,99811.66
2022-11-20T02:42:48.958Z,99811.06
2022-11-20T02:45:21.767Z,99808.29
2022-11-20T02:47:54.041Z,99810.83
2022-11-20T02:50:25.898Z,99808.61
2022-11-20T02:52:57.940Z,99806.45
2022-11-20T02:55:29.979Z,99811.81
2022-11-20T02:58:01.943Z,99811.77
2022-11-20T03:00:34.653Z,99812.41
2022-11-20T03:03:07.020Z,99811.21
2022-11-20T03:05:38.958Z,99808.77
2022-11-20T03:08:10.997Z,99811.35
2022-11-20T03:10:42.936Z,99807.21
2022-11-20T03:13:14.874Z,99803.48
2022-11-20T03:15:46.837Z,99802.55
2022-11-20T03:18:18.750Z,99803.03
2022-11-20T03:20:50.712Z,99800.87
2022-11-20T03:23:23.037Z,99801.77
2022-11-20T03:25:55.510Z,99802.05
2022-11-20T03:28:27.422Z,99802.16
2022-11-20T03:30:59.372Z,99805.52
2022-11-20T03:33:32.936Z,99809.14
2022-11-20T03:36:08.098Z,99808.07
2022-11-20T03:38:40.959Z,99806.46
2022-11-20T03:41:16.178Z,99806.88
2022-11-20T03:43:52.771Z,99802.85
2022-11-20T03:46:25.376Z,99798.97
2022-11-20T03:48:57.901Z,99797.89
2022-11-20T03:51:31.400Z,99793.55
2022-11-20T03:54:05.233Z,99793.21
2022-11-20T03:56:38.964Z,99787.52
2022-11-20T03:59:13.744Z,99786.98
2022-11-20T04:01:49.414Z,99784.64
2022-11-20T04:04:21.842Z,99784.05
2022-11-20T04:06:53.765Z,99782.31
2022-11-20T04:09:25.693Z,99783.94
2022-11-20T04:11:57.758Z,99783.45
2022-11-20T04:14:29.773Z,99788.48
2022-11-20T04:17:02.042Z,99785.23
2022-11-20T04:19:33.980Z,99786.44
2022-11-20T04:22:05.969Z,99783.80
2022-11-20T04:24:37.934Z,99783.46
2022-11-20T04:27:09.897Z,99785.38
2022-11-20T04:29:41.809Z,99781.81
2022-11-20T04:32:14.053Z,99779.78
2022-11-20T04:34:45.965Z,99778.90
2022-11-20T04:37:17.955Z,99778.68
2022-11-20T04:39:49.944Z,99778.88
2022-11-20T04:42:30.842Z,99777.45
2022-11-20T04:45:03.133Z,99784.08
2022-11-20T04:47:34.981Z,99782.55
2022-11-20T04:50:08.306Z,99781.13
2022-11-20T04:52:40.283Z,99782.73
2022-11-20T04:55:12.809Z,99783.52
2022-11-20T04:57:45.054Z,99780.21
2022-11-20T05:00:19.105Z,99773.71
2022-11-20T05:02:51.337Z,99776.64
2022-11-20T05:05:23.376Z,99780.64
2022-11-20T05:07:55.374Z,99777.45
2022-11-20T05:10:28.073Z,99779.51
2022-11-20T05:13:00.598Z,99777.77
2022-11-20T05:15:32.590Z,99773.13
2022-11-20T05:18:05.087Z,99771.02
2022-11-20T05:20:37.359Z,99770.91
2022-11-20T05:23:09.296Z,99774.00
2022-11-20T05:25:41.537Z,99777.18
2022-11-20T05:28:13.761Z,99774.45
2022-11-20T05:30:45.674Z,99775.41
2022-11-20T05:33:17.893Z,99771.15
2022-11-20T05:35:50.706Z,99766.36
2022-11-20T05:38:22.693Z,99765.14
2022-11-20T05:40:55.061Z,99763.45
2022-11-20T05:43:27.025Z,99760.42
2022-11-20T05:45:59.015Z,99758.27
2022-11-20T05:48:31.030Z,99759.05
2022-11-20T05:51:04.324Z,99756.89
2022-11-20T05:53:37.262Z,99756.14
2022-11-20T05:56:12.612Z,99749.77
2022-11-20T05:58:45.436Z,99751.99
2022-11-20T06:01:19.295Z,99763.67
2022-11-20T06:03:52.043Z,99757.54
2022-11-20T06:06:24.478Z,99756.28
2022-11-20T06:08:56.720Z,99750.63
2022-11-20T06:11:29.043Z,99741.80
2022-11-20T06:14:01.373Z,99742.11
2022-11-20T06:16:34.046Z,99741.89
2022-11-20T06:19:06.189Z,99737.39
2022-11-20T06:21:38.999Z,99739.70
2022-11-20T06:24:13.314Z,99738.09
2022-11-20T06:26:45.572Z,99736.98
2022-11-20T06:29:17.757Z,99735.11
2022-11-20T06:31:49.620Z,99739.77
2022-11-20T06:34:21.938Z,99741.70
2022-11-20T06:36:53.869Z,99741.42
2022-11-20T06:39:25.771Z,99743.59
2022-11-20T06:41:59.168Z,99743.94
2022-11-20T06:44:31.376Z,99745.55
2022-11-20T06:47:03.292Z,99743.36
2022-11-20T06:49:35.451Z,99741.40
2022-11-20T06:52:07.523Z,99737.91
2022-11-20T06:54:39.435Z,99736.55
2022-11-20T06:57:11.425Z,99738.91
2022-11-20T06:59:43.363Z,99738.70
2022-11-20T07:02:16.120Z,99729.16
2022-11-20T07:04:48.034Z,99725.04
2022-11-20T07:07:20.190Z,99724.23
2022-11-20T07:09:52.035Z,99723.81
2022-11-20T07:12:23.973Z,99726.23
2022-11-20T07:14:56.064Z,99728.44
2022-11-20T07:17:28.054Z,99729.16
2022-11-20T07:19:59.993Z,99730.70
2022-11-20T07:22:32.108Z,99732.15
2022-11-20T07:25:04.203Z,99730.59
2022-11-20T07:27:36.394Z,99729.77
2022-11-20T07:30:10.378Z,99727.60
2022-11-20T07:32:42.369Z,99727.11
2022-11-20T07:35:14.281Z,99725.31
2022-11-20T07:37:46.834Z,99721.00
2022-11-20T07:40:19.615Z,99720.45
2022-11-20T07:42:57.216Z,99720.34
2022-11-20T07:45:29.099Z,99726.70
2022-11-20T07:48:01.113Z,99735.88
2022-11-20T07:50:32.974Z,99734.86
2022-11-20T07:53:06.984Z,99733.44
2022-11-20T07:55:38.947Z,99731.11
2022-11-20T07:58:10.943Z,99732.27
2022-11-20T08:00:43.173Z,99729.81
2022-11-20T08:03:18.111Z,99730.36
2022-11-20T08:05:54.077Z,99727.23
2022-11-20T08:08:26.013Z,99728.38
2022-11-20T08:11:18.811Z,99721.39
2022-11-20T08:14:08.547Z,99726.19
2022-11-20T08:16:40.481Z,99725.19
2022-11-20T08:19:12.545Z,99724.66
2022-11-20T08:21:44.943Z,99726.05
2022-11-20T08:24:16.935Z,99719.02
2022-11-20T08:26:49.205Z,99715.73
2022-11-20T08:29:21.301Z,99712.20
2022-11-20T08:31:56.051Z,99708.23
2022-11-20T08:34:43.194Z,99708.88
2022-11-20T08:37:15.106Z,99707.03
2022-11-20T08:39:47.966Z,99706.63
2022-11-20T08:42:19.954Z,99710.80
2022-11-20T08:44:51.814Z,99714.02
2022-11-20T08:47:23.754Z,99709.97
2022-11-20T08:49:55.588Z,99707.67
2022-11-20T08:52:27.525Z,99702.51
2022-11-20T08:54:59.795Z,99698.33
2022-11-20T08:57:33.065Z,99697.52
2022-11-20T09:00:07.142Z,99694.59
2022-11-20T09:02:39.273Z,99693.30
2022-11-20T09:05:11.825Z,99695.98
2022-11-20T09:07:43.803Z,99691.95
2022-11-20T09:10:24.144Z,99693.86
2022-11-20T09:12:57.176Z,99690.00
2022-11-20T09:15:29.795Z,99688.46
2022-11-20T09:18:03.601Z,99688.02
2022-11-20T09:20:35.507Z,99687.20
2022-11-20T09:23:07.480Z,99686.38
2022-11-20T09:25:39.742Z,99688.61
2022-11-20T09:28:12.013Z,99686.12
2022-11-20T09:30:44.282Z,99682.48
2022-11-20T09:33:16.276Z,99675.45
2022-11-20T09:35:48.236Z,99670.89
2022-11-20T09:38:20.251Z,99666.77
2022-11-20T09:40:59.207Z,99666.38
2022-11-20T09:43:43.737Z,99664.65
2022-11-20T09:46:22.991Z,99658.54
2022-11-20T09:49:13.876Z,99663.70
2022-11-20T09:51:52.855Z,99665.04
2022-11-20T09:54:28.760Z,99665.84
2022-11-20T09:57:05.667Z,99663.90
2022-11-20T09:59:41.781Z,99658.42
2022-11-20T10:02:26.259Z,99656.09
2022-11-20T10:05:04.238Z,99654.28
2022-11-20T10:07:42.462Z,99653.94
2022-11-20T10:10:22.783Z,99649.16
2022-11-20T10:13:09.106Z,99653.02
2022-11-20T10:15:52.002Z,99656.58
2022-11-20T10:18:38.582Z,99654.31
2022-11-20T10:21:22.093Z,99651.81
2022-11-20T10:24:11.463Z,99653.33
2022-11-20T10:26:53.872Z,99652.70
2022-11-20T10:29:31.468Z,99650.68
2022-11-20T10:32:10.035Z,99648.96
2022-11-20T10:34:51.061Z,99653.51
2022-11-20T10:37:27.382Z,99659.13
2022-11-20T10:40:04.100Z,99660.05
2022-11-20T10:42:44.847Z,99648.13
2022-11-20T10:45:23.670Z,99649.20
2022-11-20T10:47:58.836Z,99644.86
2022-11-20T10:50:32.054Z,99646.02
2022-11-20T10:53:18.429Z,99641.33
2022-11-20T10:55:57.252Z,99643.03
2022-11-20T10:58:37.930Z,99644.30
2022-11-20T11:01:18.142Z,99644.50
2022-11-20T11:03:50.961Z,99648.25
2022-11-20T11:06:30.425Z,99649.30
2022-11-20T11:09:06.561Z,99641.21
2022-11-20T11:11:40.394Z,99637.61
2022-11-20T11:14:14.610Z,99637.60
2022-11-20T11:16:55.457Z,99633.52
2022-11-20T11:19:27.421Z,99627.48
2022-11-20T11:21:59.922Z,99629.02
2022-11-20T11:24:42.565Z,99626.28
2022-11-20T11:27:19.141Z,99621.66
2022-11-20T11:29:51.302Z,99622.80
2022-11-20T11:32:24.132Z,99620.59
2022-11-20T11:35:05.116Z,99619.39
2022-11-20T11:37:40.682Z,99616.50
2022-11-20T11:40:23.473Z,99614.03
2022-11-20T11:43:00.127Z,99616.49
2022-11-20T11:45:32.342Z,99610.49
2022-11-20T11:48:05.815Z,99613.83
2022-11-20T11:50:37.650Z,99609.74
2022-11-20T11:53:15.424Z,99605.46
2022-11-20T11:55:52.816Z,99607.33
2022-11-20T11:58:42.035Z,99609.02
2022-11-20T12:01:27.129Z,99605.09
2022-11-20T12:04:06.852Z,99598.59
2022-11-20T12:06:41.354Z,99596.52
2022-11-20T12:09:14.694Z,99597.11
2022-11-20T12:11:53.313Z,99593.75
2022-11-20T12:14:34.421Z,99588.86
2022-11-20T12:17:07.275Z,99590.60
2022-11-20T12:19:39.162Z,99587.12
2022-11-20T12:22:25.384Z,99584.81
2022-11-20T12:25:04.425Z,99584.19
2022-11-20T12:27:51.588Z,99580.41
2022-11-20T12:30:25.763Z,99584.09
2022-11-20T12:33:23.107Z,99580.07
2022-11-20T12:36:08.664Z,99576.81
2022-11-20T12:38:57.166Z,99576.14
2022-11-20T12:42:03.358Z,99572.55
2022-11-20T12:45:00.819Z,99567.30
2022-11-20T12:47:41.973Z,99570.00
2022-11-20T12:50:25.071Z,99565.88
2022-11-20T12:53:04.998Z,99559.86
2022-11-20T12:55:52.962Z,99562.02
2022-11-20T12:58:33.874Z,99558.65
2022-11-20T13:01:35.896Z,99553.66
2022-11-20T13:04:18.235Z,99547.58
2022-11-20T13:06:51.409Z,99543.04
2022-11-20T13:09:25.257Z,99541.41
2022-11-20T13:12:08.664Z,99539.83
2022-11-20T13:14:45.544Z,99537.98
2022-11-20T13:17:22.831Z,99535.77
2022-11-20T13:19:57.381Z,99535.36
2022-11-20T13:22:31.349Z,99535.28
2022-11-20T13:25:03.253Z,99531.45
2022-11-20T13:27:36.409Z,99523.95
2022-11-20T13:30:19.792Z,99521.35
2022-11-20T13:33:00.877Z,99519.17
2022-11-20T13:35:34.962Z,99519.96
2022-11-20T13:38:10.674Z,99521.14
2022-11-20T13:40:54.998Z,99520.97
2022-11-20T13:43:37.132Z,99518.84
2022-11-20T13:46:11.416Z,99521.03
2022-11-20T13:48:45.633Z,99520.69
2022-11-20T13:51:33.980Z,99515.42
2022-11-20T13:54:25.103Z,99514.67
2022-11-20T13:57:12.288Z,99513.55
2022-11-20T13:59:59.166Z,99515.43
2022-11-20T14:02:32.524Z,99513.23
2022-11-20T14:05:06.688Z,99509.95
2022-11-20T14:07:43.024Z,99512.73
2022-11-20T14:10:31.053Z,99513.59
2022-11-20T14:13:17.904Z,99508.98
2022-11-20T14:15:49.791Z,99506.52
2022-11-20T14:18:24.519Z,99506.52
2022-11-20T14:20:56.508Z,99504.28
2022-11-20T14:23:30.742Z,99492.89
2022-11-20T14:26:02.715Z,99492.10
2022-11-20T14:28:34.859Z,99491.09
2022-11-20T14:31:18.648Z,99487.45
2022-11-20T14:33:50.894Z,99484.77
2022-11-20T14:36:25.416Z,99481.58
2022-11-20T14:38:57.430Z,99484.98
2022-11-20T14:41:30.188Z,99485.91
2022-11-20T14:44:03.737Z,99482.52
2022-11-20T14:46:37.339Z,99487.19
2022-11-20T14:49:12.452Z,99485.92
2022-11-20T14:51:43.340Z,99482.69
2022-11-20T14:54:18.690Z,99484.16
2022-11-20T14:56:59.661Z,99481.98
2022-11-20T14:59:33.185Z,99479.09
2022-11-20T15:02:08.026Z,99481.66
2022-11-20T15:04:49.859Z,99477.63
2022-11-20T15:07:30.698Z,99475.39
2022-11-20T15:10:12.386Z,99472.73
2022-11-20T15:12:51.144Z,99471.45
2022-11-20T15:15:27.229Z,99465.22
2022-11-20T15:17:59.579Z,99465.60
2022-11-20T15:20:34.612Z,99467.23
2022-11-20T15:23:11.287Z,99462.86
2022-11-20T15:25:44.301Z,99466.66
2022-11-20T15:28:21.896Z,99465.73
2022-11-20T15:30:53.884Z,99460.77
2022-11-20T15:33:26.059Z,99461.36
2022-11-20T15:35:58.437Z,99457.15
2022-11-20T15:38:30.317Z,99456.86
2022-11-20T15:41:02.505Z,99454.31
2022-11-20T15:43:34.648Z,99452.13
2022-11-20T15:46:11.361Z,99452.40
2022-11-20T15:48:48.158Z,99449.85
2022-11-20T15:51:27.229Z,99449.36
2022-11-20T15:54:00.321Z,99446.44
2022-11-20T15:56:34.253Z,99442.44
2022-11-20T15:59:06.415Z,99439.50
2022-11-20T16:01:38.610Z,99438.32
2022-11-20T16:04:14.317Z,99437.36
2022-11-20T16:06:46.565Z,99436.95
2022-11-20T16:09:18.652Z,99434.67
2022-11-20T16:11:50.591Z,99435.85
2022-11-20T16:14:39.936Z,99432.20
2022-11-20T16:17:12.030Z,99431.25
2022-11-20T16:19:43.942Z,99431.49
2022-11-20T16:22:15.853Z,99434.23
2022-11-20T16:24:48.411Z,99434.33
2022-11-20T16:27:20.395Z,99429.58
2022-11-20T16:29:52.459Z,99431.70
2022-11-20T16:32:24.425Z,99429.92
2022-11-20T16:34:56.397Z,99432.77
2022-11-20T16:37:28.354Z,99434.15
2022-11-20T16:40:00.267Z,99436.64
2022-11-20T16:42:35.119Z,99432.10
2022-11-20T16:45:08.875Z,99436.75
2022-11-20T16:47:40.863Z,99437.06
2022-11-20T16:50:15.058Z,99434.09
2022-11-20T16:52:46.994Z,99436.90
2022-11-20T16:55:19.058Z,99435.67
2022-11-20T16:57:51.047Z,99435.23
2022-11-20T17:00:23.010Z,99435.88
2022-11-20T17:02:54.922Z,99433.56
2022-11-20T17:05:26.812Z,99434.91
2022-11-20T17:07:58.747Z,99434.41
2022-11-20T17:10:30.711Z,99431.81
2022-11-20T17:13:02.776Z,99432.58
2022-11-20T17:15:35.302Z,99430.03
2022-11-20T17:18:07.368Z,99431.88
2022-11-20T17:20:39.309Z,99427.00
2022-11-20T17:23:11.609Z,99426.38
2022-11-20T17:25:43.488Z,99422.07
2022-11-20T17:28:15.451Z,99425.75
2022-11-20T17:30:47.414Z,99427.02
2022-11-20T17:33:19.379Z,99424.96
2022-11-20T17:35:51.343Z,99429.02
2022-11-20T17:38:23.485Z,99427.40
2022-11-20T17:40:55.527Z,99423.50
2022-11-20T17:43:30.373Z,99419.76
2022-11-20T17:46:09.131Z,99417.76
2022-11-20T17:48:42.578Z,99416.75
2022-11-20T17:51:16.717Z,99417.89
2022-11-20T17:53:50.832Z,99413.52
2022-11-20T17:56:40.381Z,99409.60
2022-11-20T17:59:14.265Z,99404.38
2022-11-20T18:01:46.419Z,99407.26
2022-11-20T18:04:18.985Z,99405.90
2022-11-20T18:06:50.898Z,99403.70
2022-11-20T18:09:23.425Z,99404.13
2022-11-20T18:11:55.489Z,99400.45
2022-11-20T18:14:29.613Z,99401.79
2022-11-20T18:17:03.678Z,99398.84
2022-11-20T18:19:41.207Z,99401.14
2022-11-20T18:22:18.423Z,99400.14
2022-11-20T18:24:50.569Z,99395.90
2022-11-20T18:27:24.117Z,99395.12
2022-11-20T18:29:56.642Z,99394.11
2022-11-20T18:32:28.912Z,99397.94
2022-11-20T18:35:01.388Z,99393.80
2022-11-20T18:37:33.812Z,99396.64
2022-11-20T18:40:06.676Z,99397.16
2022-11-20T18:42:57.119Z,99396.59
2022-11-20T18:45:30.474Z,99393.08
2022-11-20T18:48:02.407Z,99398.52
2022-11-20T18:50:34.648Z,99395.08
2022-11-20T18:53:06.558Z,99400.17
2022-11-20T18:55:38.522Z,99389.61
2022-11-20T18:58:10.574Z,99391.37
2022-11-20T19:00:42.500Z,99391.25
2022-11-20T19:03:14.573Z,99391.64
2022-11-20T19:05:46.479Z,99388.46
2022-11-20T19:08:18.369Z,99388.70
2022-11-20T19:10:50.328Z,99383.27
2022-11-20T19:13:22.576Z,99383.05
2022-11-20T19:15:54.511Z,99381.23
2022-11-20T19:18:26.428Z,99376.57
2022-11-20T19:20:58.945Z,99376.32
2022-11-20T19:23:30.896Z,99371.95
2022-11-20T19:26:03.215Z,99370.16
2022-11-20T19:28:35.788Z,99369.73
2022-11-20T19:31:09.287Z,99372.30
2022-11-20T19:33:41.174Z,99365.95
2022-11-20T19:36:15.287Z,99364.39
2022-11-20T19:38:48.813Z,99363.66
2022-11-20T19:41:29.076Z,99363.02
2022-11-20T19:44:02.501Z,99357.17
2022-11-20T19:46:36.352Z,99357.40
2022-11-20T19:49:10.353Z,99352.27
2022-11-20T19:51:47.881Z,99355.36
2022-11-20T19:54:19.896Z,99349.77
2022-11-20T19:56:51.836Z,99348.08
2022-11-20T19:59:24.260Z,99351.95
2022-11-20T20:01:56.753Z,99354.28
2022-11-20T20:04:28.695Z,99350.66
2022-11-20T20:07:04.040Z,99352.80
2022-11-20T20:09:36.057Z,99353.95
2022-11-20T20:12:08.926Z,99358.04
2022-11-20T20:14:40.897Z,99360.92
2022-11-20T20:17:12.943Z,99364.96
2022-11-20T20:19:44.931Z,99361.90
2022-11-20T20:22:16.920Z,99365.85
2022-11-20T20:24:48.961Z,99369.92
2022-11-20T20:27:20.877Z,99371.38
2022-11-20T20:29:52.818Z,99367.45
2022-11-20T20:32:24.952Z,99365.46
2022-11-20T20:34:56.942Z,99361.89
2022-11-20T20:37:28.931Z,99365.98
2022-11-20T20:40:01.127Z,99367.34
2022-11-20T20:42:33.780Z,99367.94
2022-11-20T20:45:11.092Z,99372.98
2022-11-20T20:47:43.779Z,99375.30
2022-11-20T20:50:15.949Z,99368.88
2022-11-20T20:52:47.983Z,99376.44
2022-11-20T20:55:20.036Z,99380.55
2022-11-20T20:57:53.732Z,99373.39
2022-11-20T21:00:25.639Z,99373.63
2022-11-20T21:02:57.576Z,99372.78
2022-11-20T21:05:29.565Z,99372.52
2022-11-20T21:08:19.090Z,99374.76
2022-11-20T21:10:51.030Z,99367.98
2022-11-20T21:13:24.531Z,99369.29
2022-11-20T21:15:56.702Z,99364.92
2022-11-20T21:18:28.760Z,99365.94
2022-11-20T21:21:26.874Z,99367.05
2022-11-20T21:23:58.802Z,99362.23
2022-11-20T21:26:30.994Z,99364.98
2022-11-20T21:29:03.059Z,99362.12
2022-11-20T21:31:34.998Z,99358.72
2022-11-20T21:34:08.374Z,99356.16
2022-11-20T21:36:40.435Z,99355.33
2022-11-20T21:39:14.172Z,99354.23
2022-11-20T21:41:46.336Z,99354.02
2022-11-20T21:44:36.100Z,99352.34
2022-11-20T21:47:08.104Z,99347.33
2022-11-20T21:49:41.249Z,99348.30
2022-11-20T21:52:13.342Z,99348.90
2022-11-20T21:54:45.301Z,99348.08
2022-11-20T21:57:17.238Z,99344.66
2022-11-20T21:59:49.227Z,99340.59
2022-11-20T22:02:21.165Z,99343.89
2022-11-20T22:04:53.262Z,99342.70
2022-11-20T22:07:25.317Z,99340.17
2022-11-20T22:09:57.233Z,99338.80
2022-11-20T22:12:29.358Z,99336.63
2022-11-20T22:15:01.292Z,99332.48
2022-11-20T22:17:50.689Z,99332.31
2022-11-20T22:20:22.726Z,99325.95
2022-11-20T22:22:54.669Z,99331.63
2022-11-20T22:25:26.566Z,99331.86
2022-11-20T22:27:58.565Z,99332.25
2022-11-20T22:30:30.888Z,99329.98
2022-11-20T22:33:02.852Z,99335.98
2022-11-20T22:35:35.019Z,99341.93
2022-11-20T22:38:07.806Z,99344.27
2022-11-20T22:40:40.225Z,99344.61
2022-11-20T22:43:12.138Z,99345.89
2022-11-20T22:45:45.803Z,99351.02
2022-11-20T22:48:18.413Z,99354.06
2022-11-20T22:50:50.846Z,99353.25
2022-11-20T22:53:23.140Z,99349.54
2022-11-20T22:55:55.066Z,99354.67
2022-11-20T22:58:28.297Z,99350.94
2022-11-20T23:01:09.055Z,99351.34
2022-11-20T23:03:42.771Z,99348.31
2022-11-20T23:06:16.010Z,99343.23
2022-11-20T23:08:49.258Z,99339.02
2022-11-20T23:11:23.634Z,99336.77
2022-11-20T23:13:58.100Z,99334.16
2022-11-20T23:16:32.803Z,99329.52
2022-11-20T23:19:06.711Z,99328.39
2022-11-20T23:21:40.566Z,99329.74
2022-11-20T23:24:13.298Z,99333.00
2022-11-20T23:26:48.030Z,99334.11
2022-11-20T23:29:20.076Z,99336.86
2022-11-20T23:31:52.108Z,99331.67
2022-11-20T23:34:24.096Z,99326.02
2022-11-20T23:36:56.291Z,99324.43
2022-11-20T23:39:28.203Z,99331.27
2022-11-20T23:42:00.705Z,99328.55
2022-11-20T23:44:32.643Z,99325.39
2022-11-20T23:47:04.632Z,99323.64
2022-11-20T23:49:36.525Z,99321.48
2022-11-20T23:52:08.661Z,99313.65
2022-11-20T23:54:40.599Z,99309.63
2022-11-20T23:57:12.896Z,99307.42
2022-11-20T23:59:44.885Z,99305.92
